Flight Track Log - Related Links

Times and Time Zones

All times are in EDT time to prevent confusion due to time zone crossing. See the N713MD flight status page for this flight to view local times or setup timezone preferences in your user account.

Time Position Orientation Groundspeed Altitude Reporting Facility
EDT Latitude Longitude Course Direction KTS MPH feet Rate Location/Type
Sun 08:27:31 PM 41.9167 -87.8500 180° South 195 224 4,600  Level Chicago TRACON
Sun 08:28:52 PM 41.8225 -87.8189 166° South 259 298 5,000 545 Climbing Chicago Center
Sun 08:29:54 PM 41.7494 -87.8025 170° South 260 299 5,900 1,548 Climbing Chicago Center
Sun 08:30:56 PM 41.6861 -87.8017 179° South 228 262 8,200 2,226 Climbing Chicago Center
Sun 08:31:58 PM 41.6208 -87.8006 179° South 216 249 10,500 1,824 Climbing Chicago Center
Sun 08:32:00 PM 41.5854 -87.9062 180° South  Level Estimated
Sun 08:33:01 PM 41.5525 -87.7792 167° South 264 304 12,000  Level Chicago Center
Sun 08:34:03 PM 41.4972 -87.7378 151° Southeast 230 265 14,500 1,452 Climbing Chicago Center
Sun 08:35:05 PM 41.4258 -87.7025 160° South 265 305 15,000 968 Climbing Chicago Center
Sun 08:36:07 PM 41.3497 -87.6811 168° South 278 320 16,500 1,355 Climbing Chicago Center
Sun 08:37:09 PM 41.2708 -87.6667 172° South 270 311 17,800 1,258 Climbing Chicago Center
Sun 08:38:11 PM 41.2078 -87.6556 172° South 269 310 19,100 1,452 Climbing Chicago Center
Sun 08:39:13 PM 41.1208 -87.6375 171° South 266 306 20,800 1,355 Climbing Chicago Center
Sun 08:40:15 PM 41.0481 -87.6222 171° South 264 304 21,900 1,065 Climbing Chicago Center
Sun 08:41:17 PM 40.9728 -87.6064 171° South 271 312 23,000 1,113 Climbing Chicago Center
Sun 08:42:19 PM 40.8989 -87.5917 171° South 270 311 24,200 1,104 Climbing Chicago Center
Sun 08:43:22 PM 40.8253 -87.5753 170° South 270 311 25,300 816 Climbing Chicago Center
Sun 08:44:24 PM 40.7508 -87.5617 172° South 268 308 25,900 290 Climbing Chicago Center
Sun 08:45:26 PM 40.6500 -87.5397 171° South 302 348 25,900  Level Chicago Center
Sun 08:46:28 PM 40.5608 -87.5222 172° South 319 367 25,900  Level Chicago Center
Sun 08:47:30 PM 40.4708 -87.5053 172° South 322 371 25,900  Level Chicago Center
Sun 08:48:32 PM 40.3800 -87.4864 171° South 325 374 25,900  Level Chicago Center
Sun 08:49:34 PM 40.2906 -87.4675 171° South 329 379 25,900  Level Chicago Center
Sun 08:50:36 PM 40.1942 -87.4500 172° South 327 376 25,900  Level Chicago Center
Sun 08:51:19 PM 40.1194 -87.4331 170° South 327 376 25,900  Level Indianapolis Center
Sun 08:52:21 PM 40.0294 -87.4147 171° South 327 376 25,900  Level Indianapolis Center
Sun 08:53:24 PM 39.9378 -87.3981 172° South 329 379 25,900  Level Indianapolis Center
Sun 08:54:26 PM 39.8475 -87.3800 171° South 329 379 25,900  Level Indianapolis Center
Sun 08:55:26 PM 39.7558 -87.3617 171° South 331 381 25,900  Level Indianapolis Center
Sun 08:56:27 PM 39.6647 -87.3433 171° South 332 382 25,900  Level Indianapolis Center
Sun 08:57:28 PM 39.5736 -87.3261 172° South 332 382 25,900  Level Indianapolis Center
Sun 08:58:31 PM 39.4628 -87.3042 171° South 332 382 25,900  Level Indianapolis Center
Sun 08:59:32 PM 39.3708 -87.2858 171° South 332 382 25,900  Level Indianapolis Center
Sun 09:00:33 PM 39.2797 -87.2681 171° South 333 383 25,900  Level Indianapolis Center
Sun 09:01:36 PM 39.1892 -87.2497 171° South 333 383 25,900  Level Indianapolis Center
Sun 09:02:38 PM 39.1019 -87.2344 172° South 332 382 25,900  Level Indianapolis Center
Sun 09:03:38 PM 39.0119 -87.2158 171° South 330 380 25,900  Level Indianapolis Center
Sun 09:04:40 PM 38.9211 -87.1989 172° South 330 380 25,900  Level Indianapolis Center
Sun 09:05:40 PM 38.8111 -87.1786 172° South 330 380 25,900  Level Indianapolis Center
Sun 09:06:44 PM 38.7186 -87.1617 172° South 330 380 25,900  Level Indianapolis Center
Sun 09:07:44 PM 38.6275 -87.1442 171° South 331 381 25,900  Level Indianapolis Center
Sun 09:08:45 PM 38.5356 -87.1264 171° South 331 381 25,900  Level Indianapolis Center
Sun 09:09:46 PM 38.4442 -87.1094 172° South 331 381 25,900  Level Indianapolis Center
Sun 09:10:47 PM 38.3550 -87.0931 172° South 331 381 25,900  Level Indianapolis Center
Sun 09:11:48 PM 38.2639 -87.0739 171° South 331 381 25,900  Level Indianapolis Center
Sun 09:12:52 PM 38.1589 -87.0558 172° South 331 381 25,900  Level Indianapolis Center
Sun 09:13:53 PM 38.0692 -87.0389 172° South 330 380 25,900  Level Indianapolis Center
Sun 09:14:54 PM 37.9789 -87.0222 172° South 329 379 25,900  Level Indianapolis Center
Sun 09:15:56 PM 37.8906 -87.0053 171° South 325 374 25,900  Level Indianapolis Center
Sun 09:16:56 PM 37.8028 -86.9889 172° South 322 371 25,900  Level Indianapolis Center
Sun 09:17:57 PM 37.7156 -86.9725 172° South 319 367 25,900  Level Indianapolis Center
Sun 09:18:58 PM 37.6292 -86.9567 172° South 317 365 25,900  Level Indianapolis Center
Sun 09:20:00 PM 37.5267 -86.9372 171° South 317 365 25,900  Level Indianapolis Center
Sun 09:21:01 PM 37.4394 -86.9219 172° South 316 364 25,900  Level Indianapolis Center
Sun 09:22:02 PM 37.3522 -86.9072 172° South 316 364 25,900  Level Memphis Center
Sun 09:23:03 PM 37.2650 -86.8903 171° South 315 362 25,900  Level Memphis Center
Sun 09:24:04 PM 37.1781 -86.8747 172° South 315 362 25,900  Level Memphis Center
Sun 09:25:06 PM 37.0917 -86.8589 172° South 311 358 25,900  Level Memphis Center
Sun 09:26:07 PM 37.0056 -86.8431 172° South 311 358 25,900  Level Memphis Center
Sun 09:27:09 PM 36.9172 -86.8275 172° South 312 359 25,900  Level Memphis Center
Sun 09:28:10 PM 36.8300 -86.8106 171° South 313 360 25,900  Level Memphis Center
Sun 09:29:11 PM 36.7433 -86.7939 171° South 313 360 25,900  Level Memphis Center
Sun 09:30:13 PM 36.6556 -86.7781 172° South 313 360 25,900  Level Memphis Center
Sun 09:31:14 PM 36.5681 -86.7622 172° South 313 360 25,900  Level Memphis Center
Sun 09:32:15 PM 36.4806 -86.7467 172° South 313 360 25,900  Level Memphis Center
Sun 09:34:18 PM 36.3025 -86.7150 172° South 313 360 25,900  Level Memphis Center
Sun 09:35:20 PM 36.2142 -86.7003 172° South 313 360 25,900  Level Memphis Center
Sun 09:36:21 PM 36.1264 -86.6850 172° South 313 360 25,900  Level Memphis Center
Sun 09:37:23 PM 36.0394 -86.6942 185° South 309 356 25,900  Level Memphis Center
Sun 09:38:24 PM 35.9539 -86.7028 185° South 309 356 25,900  Level Memphis Center
Sun 09:39:25 PM 35.8675 -86.7097 184° South 308 354 25,900  Level Memphis Center
Sun 09:40:26 PM 35.7814 -86.7186 185° South 308 354 25,900  Level Memphis Center
Sun 09:41:28 PM 35.6817 -86.7269 184° South 308 354 25,900  Level Memphis Center
Sun 09:42:29 PM 35.5969 -86.7361 185° South 307 353 25,900  Level Memphis Center
Sun 09:43:30 PM 35.5122 -86.7428 184° South 304 350 25,900  Level Memphis Center
Sun 09:44:32 PM 35.4278 -86.7511 185° South 304 350 25,900  Level Memphis Center
Sun 09:45:33 PM 35.3428 -86.7581 184° South 304 350 25,900  Level Memphis Center
Sun 09:46:34 PM 35.2575 -86.7653 184° South 304 350 25,900  Level Memphis Center
Sun 09:47:35 PM 35.1728 -86.7725 184° South 304 350 25,900  Level Memphis Center
Sun 09:48:37 PM 35.0858 -86.7800 184° South 303 349 25,900  Level Memphis Center
Sun 09:49:38 PM 35.0031 -86.7864 184° South 302 348 25,900  Level Memphis Center
Sun 09:50:39 PM 34.9203 -86.7939 184° South 301 346 25,900  Level Memphis Center
Sun 09:51:41 PM 34.8381 -86.8011 184° South 300 345 25,900  Level Memphis Center
Sun 09:52:42 PM 34.7553 -86.8081 184° South 299 344 25,900  Level Memphis Center
Sun 09:53:43 PM 34.6722 -86.8150 184° South 299 344 25,900  Level Memphis Center
Sun 09:54:44 PM 34.5892 -86.8219 184° South 299 344 25,900  Level Memphis Center
Sun 09:56:16 PM 34.4514 -86.8350 184° South 310 357 25,900  Level Atlanta Center
Sun 09:57:16 PM 34.3678 -86.8397 183° South 310 357 25,900  Level Atlanta Center
Sun 09:58:16 PM 34.2839 -86.8469 184° South 310 357 25,900  Level Atlanta Center
Sun 09:59:16 PM 34.2025 -86.8544 184° South 310 357 25,900  Level Atlanta Center
Sun 10:00:16 PM 34.1189 -86.8617 184° South 310 357 25,900  Level Atlanta Center
Sun 10:01:16 PM 34.0353 -86.8689 184° South 310 357 25,900  Level Atlanta Center
Sun 10:02:16 PM 33.9536 -86.8761 184° South 310 357 25,900  Level Atlanta Center
Sun 10:03:16 PM 33.8742 -86.8836 184° South 305 351 25,900  Level Atlanta Center
Sun 10:04:16 PM 33.7925 -86.8908 184° South 300 345 25,900 50 Level Atlanta Center
Sun 10:05:16 PM 33.7111 -86.8956 183° South 300 345 26,000 50 Climbing Atlanta Center
Sun 10:06:16 PM 33.6314 -86.9131 190° South 295 339 26,000  Level Atlanta Center
Sun 10:07:16 PM 33.5536 -86.9353 193° South 290 334 26,000  Level Atlanta Center
Sun 10:08:16 PM 33.4758 -86.9600 195° South 290 334 26,000  Level Atlanta Center
Sun 10:09:16 PM 33.3978 -86.9872 196° South 290 334 26,000  Level Atlanta Center
Sun 10:10:16 PM 33.3200 -87.0119 195° South 295 339 26,000  Level Atlanta Center
Sun 10:11:16 PM 33.2486 -87.0344 195° South 295 339 26,000  Level Atlanta Center
Sun 10:12:16 PM 33.1728 -87.0567 194° South 295 339 26,000  Level Atlanta Center
Sun 10:13:16 PM 33.0886 -87.0833 195° South 295 339 26,000  Level Atlanta Center
Sun 10:14:16 PM 33.0150 -87.1081 196° South 295 339 26,000  Level Atlanta Center
Sun 10:15:16 PM 32.9414 -87.1278 193° South 295 339 26,000  Level Atlanta Center
Sun 10:16:16 PM 32.8636 -87.1522 195° South 295 339 26,000  Level Atlanta Center
Sun 10:17:16 PM 32.7858 -87.1792 196° South 290 334 26,000  Level Atlanta Center
Sun 10:18:16 PM 32.7100 -87.2011 194° South 285 328 26,000  Level Atlanta Center
Sun 10:19:16 PM 32.6344 -87.2231 194° South 285 328 26,000  Level Atlanta Center
Sun 10:20:16 PM 32.5564 -87.2475 195° South 285 328 26,000  Level Atlanta Center
Sun 10:21:16 PM 32.4786 -87.2717 195° South 285 328 26,000  Level Atlanta Center
Sun 10:22:16 PM 32.4031 -87.2936 194° South 285 328 26,000 -644 Level Atlanta Center
Sun 10:24:13 PM 32.2403 -87.3436 195° South 307 353 24,100 -1,146 Descending Houston Center
Sun 10:25:14 PM 32.1547 -87.3700 195° South 314 361 22,600 -1,279 Descending Houston Center
Sun 10:26:15 PM 32.0706 -87.3953 194° South 313 360 21,500 -934 Descending Houston Center
Sun 10:27:16 PM 31.9903 -87.4197 194° South 302 348 20,700 -787 Descending Houston Center
Sun 10:28:17 PM 31.9100 -87.4447 195° South 299 344 19,900 -836 Descending Houston Center
Sun 10:29:18 PM 31.8297 -87.4689 194° South 299 344 19,000 -885 Descending Houston Center
Sun 10:30:19 PM 31.7506 -87.4928 194° South 297 342 18,100 -780 Descending Houston Center
Sun 10:31:21 PM 31.6736 -87.5172 195° South 289 333 17,400 -787 Descending Houston Center
Sun 10:32:21 PM 31.5947 -87.5400 194° South 289 333 16,500 -992 Descending Houston Center
Sun 10:33:22 PM 31.5008 -87.5683 194° South 289 333 15,400 -927 Descending Houston Center
Sun 10:34:24 PM 31.4219 -87.5914 194° South 289 333 14,600 -829 Descending Houston Center
Sun 10:35:25 PM 31.3428 -87.6161 195° South 290 334 13,700 -885 Descending Houston Center
Sun 10:36:26 PM 31.2633 -87.6406 195° South 292 336 12,800 -836 Descending Houston Center
Sun 10:37:27 PM 31.1844 -87.6639 194° South 292 336 12,000 -836 Descending Houston Center
Sun 10:38:28 PM 31.1067 -87.6878 195° South 290 334 11,100 -885 Descending Houston Center
Sun 10:39:29 PM 31.0311 -87.7111 195° South 282 325 10,200 -780 Descending Houston Center
Sun 10:40:31 PM 30.9606 -87.7328 195° South 268 308 9,500 -634 Descending Houston Center
Sun 10:41:32 PM 30.9039 -87.7864 219° Southwest 261 300 8,900 -738 Descending Houston Center
Sun 10:42:33 PM 30.8394 -87.8092 197° South 247 284 8,000 -1,230 Descending Houston Center
Sun 10:43:34 PM 30.7736 -87.8156 185° South 220 253 6,400 -1,525 Descending Houston Center
Sun 10:44:35 PM 30.7225 -87.8275 191° South 210 242 4,900 -1,475 Descending Houston Center
Sun 10:46:00 PM 30.6031 -87.8221 199° South  Level FlightAware Approximate
Sun 10:53:00 PM 30.4605 -87.8770 190° South  Level Estimated
Sun 10:54:00 PM 30.4605 -87.8770 140° Southeast  Level Estimated
Sun 10:55:00 PM 30.4605 -87.8770 190° South  Level Estimated

Login

Don't have an account? Register now (free) for customized features, flight alerts, and more!